createdAt,value
2023-04-23T00:03:23.583Z,100234.56
2023-04-23T00:08:26.784Z,100236.59
2023-04-23T00:13:28.656Z,100233.34
2023-04-23T00:18:30.262Z,100233.97
2023-04-23T00:23:31.771Z,100232.78
2023-04-23T00:28:33.508Z,100231.81
2023-04-23T00:33:35.189Z,100226.97
2023-04-23T00:38:37.438Z,100227.78
2023-04-23T00:43:39.278Z,100222.75
2023-04-23T00:48:41.404Z,100218.69
2023-04-23T00:53:42.995Z,100220.13
2023-04-23T00:58:45.464Z,100224.75
2023-04-23T01:03:52.659Z,100223.34
2023-04-23T01:08:54.734Z,100219.94
2023-04-23T01:13:56.387Z,100208.81
2023-04-23T01:18:58.045Z,100211.44
2023-04-23T01:23:59.941Z,100212.84
2023-04-23T01:29:01.916Z,100213.25
2023-04-23T01:34:05.063Z,100212.59
2023-04-23T01:39:06.872Z,100212.38
2023-04-23T01:44:08.582Z,100211.13
2023-04-23T01:49:10.643Z,100205.41
2023-04-23T01:54:12.329Z,100208.66
2023-04-23T01:59:13.887Z,100212.06
2023-04-23T02:04:16.647Z,100206.19
2023-04-23T02:09:18.441Z,100214.91
2023-04-23T02:14:20.042Z,100209.88
2023-04-23T02:19:22.097Z,100198.97
2023-04-23T02:24:23.753Z,100209.09
2023-04-23T02:29:25.330Z,100209.69
2023-04-23T02:34:27.054Z,100209.22
2023-04-23T02:39:28.668Z,100201.31
2023-04-23T02:44:30.308Z,100204.72
2023-04-23T02:49:31.823Z,100194.88
2023-04-23T02:54:33.541Z,100193.72
2023-04-23T02:59:35.128Z,100194.50
2023-04-23T03:04:37.006Z,100190.63
2023-04-23T03:09:39.104Z,100182.50
2023-04-23T03:14:41.523Z,100175.41
2023-04-23T03:19:43.911Z,100174.47
2023-04-23T03:24:46.257Z,100184.84
2023-04-23T03:29:47.964Z,100181.13
2023-04-23T03:34:49.604Z,100187.22
2023-04-23T03:39:51.483Z,100184.31
2023-04-23T03:44:53.297Z,100180.22
2023-04-23T03:49:56.377Z,100174.03
2023-04-23T03:54:58.612Z,100173.06
2023-04-23T04:00:06.302Z,100180.25
2023-04-23T04:05:14.838Z,100177.53
2023-04-23T04:10:16.580Z,100175.19
2023-04-23T04:15:18.336Z,100172.41
2023-04-23T04:20:20.022Z,100156.28
2023-04-23T04:25:21.702Z,100153.66
2023-04-23T04:30:24.811Z,100151.47
2023-04-23T04:35:26.406Z,100163.38
2023-04-23T04:40:27.911Z,100159.56
2023-04-23T04:45:29.628Z,100168.22
2023-04-23T04:50:31.362Z,100171.03
2023-04-23T04:55:33.209Z,100178.91
2023-04-23T05:00:34.976Z,100182.75
2023-04-23T05:05:36.544Z,100186.97
2023-04-23T05:10:38.546Z,100193.22
2023-04-23T05:15:40.146Z,100176.25
2023-04-23T05:20:41.793Z,100182.91
2023-04-23T05:25:43.472Z,100188.97
2023-04-23T05:30:44.972Z,100180.84
2023-04-23T05:35:46.632Z,100184.41
2023-04-23T05:40:48.550Z,100177.28
2023-04-23T05:45:50.701Z,100175.41
2023-04-23T05:50:52.286Z,100170.03
2023-04-23T05:55:53.989Z,100174.75
2023-04-23T06:00:55.686Z,100181.06
2023-04-23T06:05:57.402Z,100174.94
2023-04-23T06:10:59.179Z,100183.41
2023-04-23T06:16:00.725Z,100183.47
2023-04-23T06:21:02.314Z,100174.94
2023-04-23T06:26:04.087Z,100175.50
2023-04-23T06:31:06.168Z,100174.66
2023-04-23T06:36:08.443Z,100168.81
2023-04-23T06:41:11.552Z,100174.66
2023-04-23T06:46:13.118Z,100177.97
2023-04-23T06:51:14.888Z,100183.69
2023-04-23T06:56:16.559Z,100175.19
2023-04-23T07:01:18.548Z,100160.22
2023-04-23T07:06:20.646Z,100162.16
2023-04-23T07:11:22.246Z,100157.34
2023-04-23T07:16:24.055Z,100172.72
2023-04-23T07:21:25.616Z,100166.59
2023-04-23T07:26:27.156Z,100154.09
2023-04-23T07:31:28.714Z,100158.88
2023-04-23T07:36:30.369Z,100158.50
2023-04-23T07:41:32.979Z,100155.22
2023-04-23T07:46:34.660Z,100153.19
2023-04-23T07:51:36.284Z,100156.50
2023-04-23T07:56:37.896Z,100166.38
2023-04-23T08:01:39.586Z,100162.91
2023-04-23T08:06:41.089Z,100155.91
2023-04-23T08:11:42.585Z,100158.91
2023-04-23T08:16:44.725Z,100148.38
2023-04-23T08:21:46.941Z,100145.16
2023-04-23T08:26:48.503Z,100140.09
2023-04-23T08:31:50.209Z,100137.59
2023-04-23T08:36:51.758Z,100138.56
2023-04-23T08:42:02.262Z,100133.53
2023-04-23T08:47:05.346Z,100129.31
2023-04-23T08:52:15.954Z,100126.16
2023-04-23T08:57:18.595Z,100125.75
2023-04-23T09:02:20.298Z,100128.16
2023-04-23T09:07:22.136Z,100119.22
2023-04-23T09:12:23.707Z,100110.41
2023-04-23T09:17:28.963Z,100100.78
2023-04-23T09:22:48.084Z,100099.75
2023-04-23T09:27:51.689Z,100092.84
2023-04-23T09:32:53.932Z,100084.25
2023-04-23T09:37:55.594Z,100071.22
2023-04-23T09:42:57.180Z,100074.56
2023-04-23T09:47:59.312Z,100073.91
2023-04-23T09:53:01.242Z,100057.72
2023-04-23T09:58:04.589Z,100067.72
2023-04-23T10:03:07.326Z,100057.34
2023-04-23T10:08:11.412Z,100056.28
2023-04-23T10:13:14.388Z,100061.00
2023-04-23T10:18:16.309Z,100056.84
2023-04-23T10:23:21.954Z,100061.31
2023-04-23T10:28:26.699Z,100053.19
2023-04-23T10:33:33.609Z,100061.72
2023-04-23T10:38:54.638Z,100058.88
2023-04-23T10:43:59.380Z,100044.06
2023-04-23T10:49:07.906Z,100044.38
2023-04-23T10:54:10.010Z,100037.38
2023-04-23T10:59:21.484Z,100021.06
2023-04-23T11:04:25.012Z,100013.53
2023-04-23T11:09:45.580Z,100017.34
2023-04-23T11:14:48.992Z,100004.53
2023-04-23T11:20:19.184Z,100000.13
2023-04-23T11:25:21.653Z,99991.13
2023-04-23T11:30:25.809Z,99991.03
2023-04-23T11:35:27.879Z,99980.53
2023-04-23T11:40:29.503Z,99972.72
2023-04-23T11:45:31.039Z,99969.50
2023-04-23T11:50:33.537Z,99965.25
2023-04-23T11:55:35.500Z,99958.03
2023-04-23T12:00:37.026Z,99953.13
2023-04-23T12:05:44.804Z,99944.03
2023-04-23T12:10:47.868Z,99943.88
2023-04-23T12:15:55.090Z,99935.09
2023-04-23T12:21:04.712Z,99929.22
2023-04-23T12:26:14.034Z,99920.88
2023-04-23T12:31:23.303Z,99907.09
2023-04-23T12:36:27.845Z,99897.31
2023-04-23T12:41:31.121Z,99903.47
2023-04-23T12:46:33.863Z,99894.88
2023-04-23T12:51:35.589Z,99888.59
2023-04-23T12:56:37.133Z,99878.31
2023-04-23T13:01:38.798Z,99866.91
2023-04-23T13:06:41.635Z,99855.31
2023-04-23T13:11:43.223Z,99845.06
2023-04-23T13:16:45.010Z,99839.50
2023-04-23T13:21:46.610Z,99832.41
2023-04-23T13:26:48.173Z,99833.22
2023-04-23T13:31:50.074Z,99821.28
2023-04-23T13:36:51.703Z,99813.44
2023-04-23T13:42:02.737Z,99809.19
2023-04-23T13:47:10.877Z,99803.13
2023-04-23T13:52:12.424Z,99798.19
2023-04-23T13:57:14.112Z,99785.63
2023-04-23T14:02:15.824Z,99771.25
2023-04-23T14:07:17.611Z,99772.00
2023-04-23T14:12:19.860Z,99753.00
2023-04-23T14:17:21.394Z,99742.88
2023-04-23T14:22:23.223Z,99731.75
2023-04-23T14:27:24.762Z,99715.53
2023-04-23T14:32:26.367Z,99696.44
2023-04-23T14:37:27.889Z,99693.41
2023-04-23T14:42:29.450Z,99689.47
2023-04-23T14:47:31.005Z,99674.34
2023-04-23T14:52:32.638Z,99671.97
2023-04-23T14:57:34.169Z,99658.78
2023-04-23T15:02:35.812Z,99655.13
2023-04-23T15:07:38.338Z,99651.63
2023-04-23T15:12:39.895Z,99647.50
2023-04-23T15:17:41.552Z,99650.56
2023-04-23T15:22:46.258Z,99640.34
2023-04-23T15:27:47.925Z,99637.38
2023-04-23T15:32:49.525Z,99632.84
2023-04-23T15:37:51.265Z,99642.81
2023-04-23T15:42:54.258Z,99636.19
2023-04-23T15:47:55.841Z,99629.16
2023-04-23T15:52:57.534Z,99635.31
2023-04-23T15:57:59.017Z,99638.19
2023-04-23T16:03:01.355Z,99630.03
2023-04-23T16:08:03.563Z,99633.06
2023-04-23T16:13:05.249Z,99651.97
2023-04-23T16:18:06.834Z,99708.13
2023-04-23T16:23:08.428Z,99677.06
2023-04-23T16:28:10.024Z,99682.25
2023-04-23T16:33:11.542Z,99673.13
2023-04-23T16:38:13.115Z,99650.47
2023-04-23T16:43:14.640Z,99627.34
2023-04-23T16:48:16.141Z,99596.81
2023-04-23T16:53:17.638Z,99589.00
2023-04-23T16:58:19.158Z,99588.91
2023-04-23T17:03:20.756Z,99577.69
2023-04-23T17:08:22.320Z,99550.91
2023-04-23T17:13:23.788Z,99555.94
2023-04-23T17:18:25.290Z,99540.97
2023-04-23T17:23:26.897Z,99550.09
2023-04-23T17:28:28.422Z,99558.22
2023-04-23T17:33:29.918Z,99563.25
2023-04-23T17:38:31.472Z,99554.56
2023-04-23T17:43:33.218Z,99556.38
2023-04-23T17:48:34.744Z,99539.91
2023-04-23T17:53:36.420Z,99538.53
2023-04-23T17:58:38.496Z,99532.00
2023-04-23T18:03:40.323Z,99534.00
2023-04-23T18:08:43.513Z,99528.81
2023-04-23T18:13:45.061Z,99525.72
2023-04-23T18:18:46.592Z,99530.28
2023-04-23T18:23:48.219Z,99534.28
2023-04-23T18:28:49.776Z,99538.19
2023-04-23T18:33:59.439Z,99535.91
2023-04-23T18:39:01.021Z,99533.25
2023-04-23T18:44:02.570Z,99530.72
2023-04-23T18:49:22.842Z,99527.88
2023-04-23T18:54:24.376Z,99528.47
2023-04-23T18:59:25.849Z,99522.50
2023-04-23T19:04:27.423Z,99543.56
2023-04-23T19:09:29.177Z,99552.03
2023-04-23T19:14:30.680Z,99541.94
2023-04-23T19:19:32.222Z,99544.81
2023-04-23T19:24:33.766Z,99552.03
2023-04-23T19:29:35.273Z,99561.50
2023-04-23T19:34:36.834Z,99564.75
2023-04-23T19:39:38.349Z,99586.75
2023-04-23T19:44:39.842Z,99579.25
2023-04-23T19:49:41.868Z,99603.06
2023-04-23T19:54:43.731Z,99597.72
2023-04-23T19:59:48.598Z,99610.09
2023-04-23T20:04:50.094Z,99617.09
2023-04-23T20:09:51.629Z,99628.53
2023-04-23T20:14:53.106Z,99630.34
2023-04-23T20:19:54.626Z,99646.59
2023-04-23T20:24:56.904Z,99662.53
2023-04-23T20:29:58.452Z,99650.50
2023-04-23T20:34:59.914Z,99663.34
2023-04-23T20:40:01.638Z,99654.50
2023-04-23T20:45:03.397Z,99650.94
2023-04-23T20:50:05.390Z,99655.66
2023-04-23T20:55:07.429Z,99656.25
2023-04-23T21:00:09.353Z,99637.47
2023-04-23T21:05:11.987Z,99640.88
2023-04-23T21:10:13.486Z,99637.56
2023-04-23T21:15:15.752Z,99641.19
2023-04-23T21:20:17.285Z,99646.16
2023-04-23T21:25:18.933Z,99645.91
2023-04-23T21:30:49.838Z,99642.84
2023-04-23T21:35:53.126Z,99641.81
2023-04-23T21:40:54.663Z,99635.03
2023-04-23T21:45:56.228Z,99636.66
2023-04-23T21:50:57.712Z,99631.63
2023-04-23T21:55:59.245Z,99631.81
2023-04-23T22:01:01.034Z,99623.72
2023-04-23T22:06:03.362Z,99624.50
2023-04-23T22:11:06.309Z,99619.81
2023-04-23T22:16:20.357Z,99616.38
2023-04-23T22:21:28.701Z,99621.06
2023-04-23T22:26:30.281Z,99622.44
2023-04-23T22:31:31.876Z,99625.75
2023-04-23T22:36:33.606Z,99615.31
2023-04-23T22:41:35.105Z,99611.66
2023-04-23T22:46:36.760Z,99623.41
2023-04-23T22:51:38.321Z,99627.94
2023-04-23T22:56:40.625Z,99615.03
2023-04-23T23:01:43.056Z,99611.34
2023-04-23T23:06:44.677Z,99601.94
2023-04-23T23:11:46.247Z,99606.59
2023-04-23T23:16:47.783Z,99599.97
2023-04-23T23:21:49.369Z,99612.41
2023-04-23T23:26:51.049Z,99607.97
2023-04-23T23:31:52.613Z,99605.59
2023-04-23T23:36:55.329Z,99599.97
2023-04-23T23:41:58.380Z,99603.84
2023-04-23T23:47:19.153Z,99597.78
2023-04-23T23:52:20.658Z,99605.06
2023-04-23T23:57:22.198Z,99590.91
